Time;durP1;ratioP1;P1;durP2;ratioP2;P2;SDS_P1;SDS_P2;PMS_P1;PMS_P2;Temp;Humidity;BMP_temperature;BMP_pressure;BME280_temperature;BME280_humidity;BME280_pressure;Samples;Min_cycle;Max_cycle;Signal;HPM_P1;HPM_P2
2021/06/25 00:00:57;;;;;;;11.15;10.07;;;;;;;;;;5078221;28;20361;-65
2021/06/25 00:03:23;;;;;;;14.27;12.75;;;;;;;;;;5078083;28;20097;-65
2021/06/25 00:05:49;;;;;;;12.27;11.07;;;;;;;;;;5080368;28;20048;-65
2021/06/25 00:08:15;;;;;;;10.75;9.73;;;;;;;;;;5078765;28;20505;-65
2021/06/25 00:10:41;;;;;;;10.52;9.52;;;;;;;;;;5081044;28;20093;-65
2021/06/25 00:13:07;;;;;;;11.57;10.60;;;;;;;;;;5077946;28;20032;-65
2021/06/25 00:15:33;;;;;;;10.90;9.93;;;;;;;;;;5074285;28;20040;-65
2021/06/25 00:18:01;;;;;;;9.73;8.93;;;;;;;;;;5078058;28;20094;-65
2021/06/25 00:20:27;;;;;;;9.82;8.93;;;;;;;;;;5080632;28;20937;-65
2021/06/25 00:22:53;;;;;;;9.95;9.15;;;;;;;;;;5084738;28;20064;-65
2021/06/25 00:25:19;;;;;;;9.48;8.68;;;;;;;;;;5080233;28;20497;-65
2021/06/25 00:27:46;;;;;;;11.48;10.38;;;;;;;;;;5080598;28;20480;-65
2021/06/25 00:30:15;;;;;;;10.75;9.73;;;;;;;;;;5084855;28;20460;-65
2021/06/25 00:32:41;;;;;;;12.15;11.15;;;;;;;;;;5071740;28;20040;-65
2021/06/25 00:35:07;;;;;;;10.20;9.40;;;;;;;;;;5091203;28;20109;-65
2021/06/25 00:37:34;;;;;;;13.52;12.27;;;;;;;;;;5073102;28;20060;-65
2021/06/25 00:40:00;;;;;;;10.82;9.82;;;;;;;;;;5085554;28;20123;-64
2021/06/25 00:42:26;;;;;;;11.75;10.65;;;;;;;;;;5079193;28;20047;-65
2021/06/25 00:44:52;;;;;;;12.60;11.50;;;;;;;;;;5081358;28;20369;-65
2021/06/25 00:47:19;;;;;;;10.63;9.80;;;;;;;;;;5072329;28;20424;-65
2021/06/25 00:49:45;;;;;;;10.85;9.85;;;;;;;;;;5084465;28;20042;-65
2021/06/25 00:52:14;;;;;;;10.73;9.77;;;;;;;;;;5073015;28;20043;-65
2021/06/25 00:54:40;;;;;;;11.57;10.60;;;;;;;;;;5084659;28;20044;-65
2021/06/25 00:57:07;;;;;;;12.32;11.25;;;;;;;;;;5078655;28;20060;-65
2021/06/25 00:59:33;;;;;;;11.57;10.07;;;;;;;;;;5079643;28;20043;-65
2021/06/25 01:01:59;;;;;;;10.68;9.77;;;;;;;;;;5071046;28;20051;-65
2021/06/25 01:04:26;;;;;;;10.77;9.88;;;;;;;;;;5076629;28;20098;-65
2021/06/25 01:06:52;;;;;;;10.55;9.45;;;;;;;;;;5075218;28;20047;-65
2021/06/25 01:09:20;;;;;;;10.75;9.82;;;;;;;;;;5078086;28;20107;-65
2021/06/25 01:11:46;;;;;;;11.10;10.18;;;;;;;;;;5083899;28;20043;-65
2021/06/25 01:14:12;;;;;;;12.23;11.23;;;;;;;;;;5076941;28;20121;-65
2021/06/25 01:16:40;;;;;;;12.05;10.85;;;;;;;;;;5082402;28;20074;-65
2021/06/25 01:19:15;;;;;;;12.55;11.25;;;;;;;;;;5076773;28;20111;-65
2021/06/25 01:21:43;;;;;;;10.68;9.77;;;;;;;;;;5082311;28;20056;-65
2021/06/25 01:24:09;;;;;;;9.75;8.95;;;;;;;;;;5071410;28;20131;-65
2021/06/25 01:26:36;;;;;;;9.80;8.90;;;;;;;;;;5079724;28;20056;-65
2021/06/25 01:29:02;;;;;;;9.75;8.90;;;;;;;;;;5077625;28;20044;-65
2021/06/25 01:31:28;;;;;;;10.13;9.32;;;;;;;;;;5079337;28;20534;-64
2021/06/25 01:33:55;;;;;;;10.35;9.30;;;;;;;;;;5073029;28;20047;-64
2021/06/25 01:36:21;;;;;;;12.68;11.48;;;;;;;;;;5075947;28;20048;-65
2021/06/25 01:38:50;;;;;;;8.85;8.07;;;;;;;;;;5072967;28;20119;-65
2021/06/25 01:41:16;;;;;;;11.55;10.30;;;;;;;;;;5076385;28;20035;-65
2021/06/25 01:43:45;;;;;;;10.18;9.27;;;;;;;;;;5072625;28;20044;-65
2021/06/25 01:46:14;;;;;;;9.82;9.02;;;;;;;;;;5074625;28;20428;-65
2021/06/25 01:48:40;;;;;;;10.25;9.25;;;;;;;;;;5074927;28;20163;-65
2021/06/25 01:51:07;;;;;;;10.27;9.32;;;;;;;;;;5083927;28;20662;-65
2021/06/25 01:53:33;;;;;;;12.82;11.52;;;;;;;;;;5076531;28;20127;-65
2021/06/25 01:56:01;;;;;;;11.57;10.38;;;;;;;;;;5072118;28;20040;-65
2021/06/25 01:58:30;;;;;;;11.02;10.10;;;;;;;;;;5079427;28;20122;-65
2021/06/25 02:01:10;;;;;;;10.93;10.00;;;;;;;;;;5073220;28;21429;-65
2021/06/25 02:03:37;;;;;;;10.27;9.38;;;;;;;;;;5073882;28;20705;-65
2021/06/25 02:06:04;;;;;;;9.80;9.00;;;;;;;;;;5077001;28;20415;-65
2021/06/25 02:08:30;;;;;;;10.00;9.00;;;;;;;;;;5080275;28;20038;-65
2021/06/25 02:10:56;;;;;;;11.43;10.43;;;;;;;;;;5073938;28;20036;-65
2021/06/25 02:13:22;;;;;;;14.07;12.68;;;;;;;;;;5082953;28;20128;-65
2021/06/25 02:15:48;;;;;;;12.75;11.52;;;;;;;;;;5070085;28;20040;-65
2021/06/25 02:18:15;;;;;;;11.98;10.90;;;;;;;;;;5077469;28;20059;-65
2021/06/25 02:20:41;;;;;;;12.23;11.00;;;;;;;;;;5071827;28;20085;-65
2021/06/25 02:23:07;;;;;;;10.52;9.52;;;;;;;;;;5104694;27;20400;-65
2021/06/25 02:25:33;;;;;;;10.77;9.88;;;;;;;;;;5074936;28;20577;-65
2021/06/25 02:27:59;;;;;;;11.02;9.90;;;;;;;;;;5083325;28;20112;-65
2021/06/25 02:30:26;;;;;;;12.13;11.02;;;;;;;;;;5077959;28;20040;-65
2021/06/25 02:32:52;;;;;;;13.70;12.43;;;;;;;;;;5082079;28;20032;-65
2021/06/25 02:35:18;;;;;;;12.05;10.95;;;;;;;;;;5078575;28;20028;-65
2021/06/25 02:37:44;;;;;;;11.18;10.02;;;;;;;;;;5069205;28;20507;-65
2021/06/25 02:40:11;;;;;;;11.50;10.40;;;;;;;;;;5072679;28;20241;-65
2021/06/25 02:42:38;;;;;;;14.10;12.65;;;;;;;;;;5073517;28;20047;-65
2021/06/25 02:45:05;;;;;;;13.85;12.65;;;;;;;;;;5093705;28;20067;-65
2021/06/25 02:47:33;;;;;;;11.85;10.75;;;;;;;;;;5070510;28;20048;-65
2021/06/25 02:49:59;;;;;;;13.82;12.63;;;;;;;;;;5082001;28;20036;-65
2021/06/25 02:52:26;;;;;;;14.50;13.00;;;;;;;;;;5073271;28;20127;-65
2021/06/25 02:54:52;;;;;;;78.93;16.55;;;;;;;;;;5073639;28;20237;-65
2021/06/25 02:57:18;;;;;;;48.17;17.67;;;;;;;;;;5069666;28;20086;-65
2021/06/25 02:59:45;;;;;;;114.50;18.20;;;;;;;;;;5076605;28;20040;-65
2021/06/25 03:02:11;;;;;;;24.73;16.55;;;;;;;;;;5073347;28;20484;-65
2021/06/25 03:04:37;;;;;;;178.57;19.25;;;;;;;;;;5075284;28;20118;-65
2021/06/25 03:07:03;;;;;;;16.98;15.18;;;;;;;;;;5071152;28;20047;-65
2021/06/25 03:09:30;;;;;;;74.22;16.13;;;;;;;;;;5084363;28;20519;-65
2021/06/25 03:11:57;;;;;;;120.40;18.02;;;;;;;;;;5068192;28;20037;-65
2021/06/25 03:14:23;;;;;;;77.70;17.70;;;;;;;;;;5079813;28;20028;-65
2021/06/25 03:16:49;;;;;;;61.05;16.58;;;;;;;;;;5074531;28;20882;-65
2021/06/25 03:19:15;;;;;;;33.13;14.75;;;;;;;;;;5073389;28;20059;-65
2021/06/25 03:21:42;;;;;;;14.70;13.38;;;;;;;;;;5072110;28;20550;-65
2021/06/25 03:24:10;;;;;;;26.75;14.68;;;;;;;;;;5073874;28;20040;-65
2021/06/25 03:26:36;;;;;;;12.75;11.63;;;;;;;;;;5080380;28;20135;-65
2021/06/25 03:29:03;;;;;;;14.60;13.07;;;;;;;;;;5073463;28;20036;-65
2021/06/25 03:31:29;;;;;;;28.10;15.23;;;;;;;;;;5075847;28;20117;-65
2021/06/25 03:33:55;;;;;;;14.20;12.90;;;;;;;;;;5074571;28;20438;-65
2021/06/25 03:36:21;;;;;;;13.45;12.25;;;;;;;;;;5076725;28;20178;-65
2021/06/25 03:38:47;;;;;;;13.85;12.45;;;;;;;;;;5074848;28;20127;-65
2021/06/25 03:41:14;;;;;;;13.70;12.43;;;;;;;;;;5078277;28;20040;-65
2021/06/25 03:43:40;;;;;;;13.55;12.35;;;;;;;;;;5065659;28;20037;-65
2021/06/25 03:46:06;;;;;;;12.27;11.10;;;;;;;;;;5081466;28;20033;-65
2021/06/25 03:48:33;;;;;;;12.48;11.23;;;;;;;;;;5066943;28;20468;-65
2021/06/25 03:50:59;;;;;;;13.43;12.13;;;;;;;;;;5073990;28;20056;-65
2021/06/25 03:53:25;;;;;;;12.25;11.15;;;;;;;;;;5068664;28;20076;-65
2021/06/25 03:56:12;;;;;;;11.50;10.48;;;;;;;;;;5083531;28;20060;-65
2021/06/25 03:58:39;;;;;;;10.57;9.68;;;;;;;;;;5071026;28;20099;-65
2021/06/25 04:01:06;;;;;;;9.98;9.07;;;;;;;;;;5078733;28;20135;-65
2021/06/25 04:03:32;;;;;;;8.13;7.43;;;;;;;;;;5079538;28;20411;-65
2021/06/25 04:05:59;;;;;;;9.63;8.82;;;;;;;;;;5075613;28;20047;-65
2021/06/25 04:08:27;;;;;;;14.90;8.85;;;;;;;;;;5076748;28;20037;-65
2021/06/25 04:10:53;;;;;;;16.50;9.60;;;;;;;;;;5075069;28;20048;-65
2021/06/25 04:13:19;;;;;;;24.70;8.60;;;;;;;;;;5074080;28;20036;-65
2021/06/25 04:15:45;;;;;;;8.98;7.93;;;;;;;;;;5072715;28;20043;-65
2021/06/25 04:18:11;;;;;;;11.00;6.93;;;;;;;;;;5073120;28;21623;-65
2021/06/25 04:20:38;;;;;;;19.98;8.73;;;;;;;;;;5077048;28;20043;-65
2021/06/25 04:23:09;;;;;;;20.67;9.18;;;;;;;;;;5081374;28;20043;-65
2021/06/25 04:25:35;;;;;;;20.30;9.30;;;;;;;;;;5036010;28;1130456;-65
2021/06/25 04:28:01;;;;;;;21.60;9.60;;;;;;;;;;5079687;28;20092;-65
2021/06/25 04:30:28;;;;;;;12.80;9.52;;;;;;;;;;5069935;28;20041;-65
2021/06/25 04:32:58;;;;;;;23.95;9.27;;;;;;;;;;5083314;28;20040;-65
2021/06/25 04:35:24;;;;;;;12.52;9.02;;;;;;;;;;5074510;28;20052;-65
2021/06/25 04:37:50;;;;;;;13.50;9.30;;;;;;;;;;5078526;28;20113;-65
2021/06/25 04:40:18;;;;;;;12.10;9.07;;;;;;;;;;5073142;28;20067;-65
2021/06/25 04:42:45;;;;;;;10.20;9.15;;;;;;;;;;5083114;28;20036;-65
2021/06/25 04:45:12;;;;;;;9.65;8.85;;;;;;;;;;5078791;28;20037;-65
2021/06/25 04:47:43;;;;;;;9.85;9.05;;;;;;;;;;5073836;28;20044;-65
2021/06/25 04:50:09;;;;;;;11.15;9.48;;;;;;;;;;5080422;28;20033;-65
2021/06/25 04:52:35;;;;;;;9.18;8.38;;;;;;;;;;5076467;28;20045;-65
2021/06/25 04:55:02;;;;;;;9.70;8.77;;;;;;;;;;5083510;28;20136;-65
2021/06/25 04:57:28;;;;;;;9.40;8.50;;;;;;;;;;5080150;28;20048;-65
2021/06/25 04:59:54;;;;;;;10.98;9.88;;;;;;;;;;5081081;28;20054;-65
2021/06/25 05:02:21;;;;;;;9.68;8.77;;;;;;;;;;5078642;28;20063;-65
2021/06/25 05:04:47;;;;;;;10.05;9.15;;;;;;;;;;5082349;28;20032;-65
2021/06/25 05:07:13;;;;;;;10.38;9.38;;;;;;;;;;5077409;28;20462;-65
2021/06/25 05:09:39;;;;;;;13.13;12.02;;;;;;;;;;5082549;28;20041;-66
2021/06/25 05:12:06;;;;;;;11.38;10.45;;;;;;;;;;5075600;28;20044;-65
2021/06/25 05:14:40;;;;;;;10.57;9.70;;;;;;;;;;5081444;28;20063;-64
2021/06/25 05:17:06;;;;;;;11.32;10.32;;;;;;;;;;5068895;28;20123;-65
2021/06/25 05:19:33;;;;;;;13.13;12.02;;;;;;;;;;5076143;28;20036;-65
2021/06/25 05:21:59;;;;;;;11.73;10.73;;;;;;;;;;5072950;28;20078;-65
2021/06/25 05:24:27;;;;;;;13.32;11.93;;;;;;;;;;5082099;28;20040;-64
2021/06/25 05:26:53;;;;;;;15.73;14.23;;;;;;;;;;5078748;28;20139;-66
2021/06/25 05:29:19;;;;;;;15.13;13.75;;;;;;;;;;5071144;28;20044;-66
2021/06/25 05:31:45;;;;;;;14.93;13.48;;;;;;;;;;5081071;28;20131;-65
2021/06/25 05:34:11;;;;;;;15.90;14.40;;;;;;;;;;5066668;28;20098;-65
2021/06/25 05:36:37;;;;;;;17.65;16.05;;;;;;;;;;5087048;28;20546;-65
2021/06/25 05:39:04;;;;;;;18.52;16.70;;;;;;;;;;5073061;28;20085;-64
2021/06/25 05:41:30;;;;;;;15.43;14.02;;;;;;;;;;5089366;28;20459;-65
2021/06/25 05:43:56;;;;;;;17.17;15.68;;;;;;;;;;5071392;28;20581;-65
2021/06/25 05:46:22;;;;;;;18.20;16.48;;;;;;;;;;5083604;28;20043;-66
2021/06/25 05:48:49;;;;;;;18.17;16.10;;;;;;;;;;5077016;28;20051;-66
2021/06/25 05:51:15;;;;;;;18.95;16.10;;;;;;;;;;5086433;28;20112;-67
2021/06/25 05:53:42;;;;;;;20.90;18.90;;;;;;;;;;5078942;28;20496;-65
2021/06/25 05:56:08;;;;;;;19.50;17.60;;;;;;;;;;5068663;28;20192;-67
2021/06/25 05:58:34;;;;;;;21.02;19.13;;;;;;;;;;5081081;28;20152;-66
2021/06/25 06:01:01;;;;;;;18.10;16.50;;;;;;;;;;5087015;28;20028;-66
2021/06/25 06:03:27;;;;;;;19.02;17.40;;;;;;;;;;5061235;28;20052;-65
2021/06/25 06:05:53;;;;;;;20.38;18.45;;;;;;;;;;5083372;28;20613;-65
2021/06/25 06:08:20;;;;;;;18.73;17.13;;;;;;;;;;5074998;28;20098;-66
2021/06/25 06:10:46;;;;;;;19.42;17.63;;;;;;;;;;5078174;28;20048;-65
2021/06/25 06:13:12;;;;;;;18.42;16.85;;;;;;;;;;5077885;28;20024;-66
2021/06/25 06:15:38;;;;;;;16.63;15.23;;;;;;;;;;5082378;28;20124;-65
2021/06/25 06:18:06;;;;;;;18.13;16.08;;;;;;;;;;5084043;28;20047;-65
2021/06/25 06:20:32;;;;;;;18.33;16.73;;;;;;;;;;5074254;28;20472;-66
2021/06/25 06:31:23;;;;;;;17.38;15.85;;;;;;;;;;5075715;28;20036;-66
2021/06/25 06:38:47;;;;;;;17.55;15.95;;;;;;;;;;5086572;28;20503;-66
2021/06/25 06:41:13;;;;;;;19.25;16.02;;;;;;;;;;5076455;28;20480;-66
2021/06/25 06:43:41;;;;;;;16.55;15.05;;;;;;;;;;5084660;28;20032;-66
2021/06/25 06:46:09;;;;;;;17.90;16.27;;;;;;;;;;5078601;28;20462;-67
2021/06/25 06:48:36;;;;;;;17.42;15.93;;;;;;;;;;5084180;28;20078;-67
2021/06/25 06:51:03;;;;;;;17.92;16.13;;;;;;;;;;5078765;28;20464;-68
2021/06/25 06:53:29;;;;;;;17.40;15.68;;;;;;;;;;5087564;28;20043;-65
2021/06/25 06:55:55;;;;;;;16.55;14.98;;;;;;;;;;5077890;28;20551;-67
2021/06/25 06:58:21;;;;;;;16.90;15.43;;;;;;;;;;5081774;28;20041;-67
2021/06/25 07:00:47;;;;;;;16.23;14.82;;;;;;;;;;5076763;28;20032;-67
2021/06/25 07:03:14;;;;;;;16.00;14.50;;;;;;;;;;5083065;28;20472;-67
2021/06/25 07:05:41;;;;;;;15.73;14.10;;;;;;;;;;5086027;28;20080;-66
2021/06/25 07:08:07;;;;;;;17.10;15.60;;;;;;;;;;5077057;28;20470;-67
2021/06/25 07:10:33;;;;;;;16.50;15.05;;;;;;;;;;5086182;28;20180;-67
2021/06/25 07:12:59;;;;;;;16.73;15.00;;;;;;;;;;5078104;28;20063;-66
2021/06/25 07:15:25;;;;;;;15.35;13.80;;;;;;;;;;5082690;28;20037;-66
2021/06/25 07:17:51;;;;;;;11.35;10.32;;;;;;;;;;5077556;28;20442;-66
2021/06/25 07:20:18;;;;;;;10.43;8.85;;;;;;;;;;5086160;28;20032;-66
2021/06/25 07:22:44;;;;;;;9.30;8.40;;;;;;;;;;5077527;28;20036;-66
2021/06/25 07:25:11;;;;;;;10.00;9.20;;;;;;;;;;5071867;28;20040;-67
2021/06/25 07:27:37;;;;;;;7.10;6.40;;;;;;;;;;5081400;28;20047;-67
2021/06/25 07:30:07;;;;;;;7.82;7.05;;;;;;;;;;5078640;28;20043;-67
2021/06/25 07:32:33;;;;;;;6.97;6.38;;;;;;;;;;5068572;28;20118;-67
2021/06/25 07:34:59;;;;;;;5.60;5.03;;;;;;;;;;5077752;28;20044;-67
2021/06/25 07:37:25;;;;;;;6.68;6.15;;;;;;;;;;5071774;28;20033;-67
2021/06/25 07:39:52;;;;;;;7.13;5.60;;;;;;;;;;5079958;28;20071;-67
2021/06/25 07:42:18;;;;;;;7.65;6.38;;;;;;;;;;5066378;28;20052;-67
2021/06/25 07:44:44;;;;;;;7.47;6.40;;;;;;;;;;5073435;28;20071;-67
2021/06/25 07:47:11;;;;;;;5.72;4.95;;;;;;;;;;5074294;28;20032;-67
2021/06/25 07:49:37;;;;;;;3.30;3.00;;;;;;;;;;5075286;28;20373;-66
2021/06/25 07:52:03;;;;;;;3.40;3.05;;;;;;;;;;5079749;28;20047;-67
2021/06/25 07:54:49;;;;;;;3.70;3.20;;;;;;;;;;5064204;28;20052;-66
2021/06/25 07:57:15;;;;;;;5.75;2.92;;;;;;;;;;5078299;28;20072;-67
2021/06/25 07:59:41;;;;;;;3.97;3.05;;;;;;;;;;5079141;28;20126;-68
2021/06/25 08:02:07;;;;;;;3.60;3.28;;;;;;;;;;5070878;28;20036;-68
2021/06/25 08:04:34;;;;;;;3.45;3.15;;;;;;;;;;5078272;28;20043;-69
2021/06/25 08:07:01;;;;;;;4.60;3.42;;;;;;;;;;5080422;28;20059;-71
2021/06/25 08:09:27;;;;;;;4.35;3.85;;;;;;;;;;5067064;28;20052;-68
2021/06/25 08:11:53;;;;;;;4.43;3.30;;;;;;;;;;5077912;28;20083;-67
2021/06/25 08:14:19;;;;;;;3.15;2.85;;;;;;;;;;5069990;28;20039;-69
2021/06/25 08:16:45;;;;;;;4.40;2.75;;;;;;;;;;5075934;28;20044;-68
2021/06/25 08:19:11;;;;;;;3.53;2.80;;;;;;;;;;5068022;28;20039;-71
2021/06/25 08:21:38;;;;;;;3.00;2.70;;;;;;;;;;5082261;28;20033;-66
2021/06/25 08:24:04;;;;;;;4.93;2.92;;;;;;;;;;5076970;28;20549;-67
2021/06/25 08:26:30;;;;;;;4.28;3.55;;;;;;;;;;5087922;28;20059;-67
2021/06/25 08:28:56;;;;;;;6.13;3.75;;;;;;;;;;5076856;28;20503;-67
2021/06/25 08:31:23;;;;;;;6.28;4.82;;;;;;;;;;5072158;28;20394;-67
2021/06/25 08:33:49;;;;;;;5.57;5.07;;;;;;;;;;5084153;28;20442;-67
2021/06/25 08:36:15;;;;;;;5.40;4.90;;;;;;;;;;5083762;28;20057;-67
2021/06/25 08:38:42;;;;;;;5.38;4.88;;;;;;;;;;5077509;28;20080;-67
2021/06/25 08:41:08;;;;;;;6.50;5.70;;;;;;;;;;5074533;28;20060;-67
2021/06/25 08:43:34;;;;;;;9.00;5.93;;;;;;;;;;5080238;28;20700;-67
2021/06/25 08:46:01;;;;;;;6.32;5.72;;;;;;;;;;5072706;28;20028;-67
2021/06/25 08:48:28;;;;;;;5.88;5.18;;;;;;;;;;5080806;28;20052;-67
2021/06/25 08:50:55;;;;;;;5.88;4.50;;;;;;;;;;5071393;28;20060;-67
2021/06/25 08:53:21;;;;;;;4.97;4.50;;;;;;;;;;5079023;28;20089;-67
2021/06/25 08:55:48;;;;;;;4.82;4.22;;;;;;;;;;5072230;28;20040;-67
2021/06/25 08:58:14;;;;;;;4.55;4.10;;;;;;;;;;5078651;28;20040;-67
2021/06/25 09:00:41;;;;;;;5.53;3.95;;;;;;;;;;5069635;28;20500;-67
2021/06/25 09:03:07;;;;;;;5.70;4.63;;;;;;;;;;5079835;28;20048;-67
2021/06/25 09:05:33;;;;;;;4.97;3.38;;;;;;;;;;5073880;28;20036;-68
2021/06/25 09:08:01;;;;;;;5.85;3.72;;;;;;;;;;5080348;28;20038;-68
2021/06/25 09:10:32;;;;;;;5.07;4.35;;;;;;;;;;5075169;28;20036;-68
2021/06/25 09:13:04;;;;;;;5.40;4.90;;;;;;;;;;5070974;28;20036;-68
2021/06/25 09:15:31;;;;;;;5.43;4.90;;;;;;;;;;5076233;28;20063;-66
2021/06/25 09:18:02;;;;;;;8.07;6.97;;;;;;;;;;5073356;28;20406;-67
2021/06/25 09:20:29;;;;;;;8.30;7.30;;;;;;;;;;5088748;28;20032;-66
2021/06/25 09:22:55;;;;;;;11.05;7.43;;;;;;;;;;5067943;28;20072;-68
2021/06/25 09:25:21;;;;;;;9.02;7.18;;;;;;;;;;5078489;28;20032;-67
2021/06/25 09:27:53;;;;;;;10.90;7.80;;;;;;;;;;5071202;28;20052;-67
2021/06/25 09:30:20;;;;;;;8.00;6.55;;;;;;;;;;5088046;28;20041;-68
2021/06/25 09:32:48;;;;;;;8.45;7.53;;;;;;;;;;5071879;28;20055;-70
2021/06/25 09:35:18;;;;;;;7.35;6.60;;;;;;;;;;5079457;28;20475;-67
2021/06/25 09:37:46;;;;;;;7.38;6.63;;;;;;;;;;5070819;28;20070;-68
2021/06/25 09:40:13;;;;;;;10.38;7.68;;;;;;;;;;5079693;28;20126;-69
2021/06/25 09:42:42;;;;;;;9.02;8.10;;;;;;;;;;5081131;28;20132;-69
2021/06/25 09:45:10;;;;;;;12.73;10.23;;;;;;;;;;5078564;28;20055;-69
2021/06/25 09:47:44;;;;;;;12.18;10.98;;;;;;;;;;5071872;28;20478;-68
2021/06/25 09:50:13;;;;;;;12.90;11.65;;;;;;;;;;5076266;28;20045;-68
2021/06/25 09:52:52;;;;;;;11.77;10.57;;;;;;;;;;5073989;28;20169;-66
2021/06/25 09:55:20;;;;;;;13.20;11.88;;;;;;;;;;5075967;28;20105;-67
2021/06/25 09:58:22;;;;;;;13.13;11.88;;;;;;;;;;5068921;28;22216;-67
2021/06/25 10:03:34;;;;;;;14.43;12.93;;;;;;;;;;5075565;28;20181;-68
2021/06/25 10:06:07;;;;;;;15.43;13.95;;;;;;;;;;5063600;28;20032;-68
2021/06/25 10:08:34;;;;;;;16.13;14.73;;;;;;;;;;5073405;28;20036;-66
2021/06/25 10:11:05;;;;;;;16.17;14.50;;;;;;;;;;5077530;28;20109;-67
2021/06/25 10:13:35;;;;;;;15.52;14.07;;;;;;;;;;5072005;28;20400;-67
2021/06/25 10:16:02;;;;;;;13.95;12.57;;;;;;;;;;5076331;28;20464;-67
2021/06/25 10:18:30;;;;;;;14.15;12.77;;;;;;;;;;5067329;28;20123;-68
2021/06/25 10:20:56;;;;;;;15.60;14.20;;;;;;;;;;5074237;28;20046;-66
2021/06/25 10:23:24;;;;;;;14.70;13.23;;;;;;;;;;5078850;28;20086;-67
2021/06/25 10:25:51;;;;;;;14.52;13.07;;;;;;;;;;5075518;28;20028;-67
2021/06/25 10:28:17;;;;;;;13.93;12.73;;;;;;;;;;5071346;28;20094;-67
2021/06/25 10:30:45;;;;;;;14.18;12.85;;;;;;;;;;5073680;28;20377;-66
2021/06/25 10:33:12;;;;;;;14.13;12.30;;;;;;;;;;5083985;28;20036;-67
2021/06/25 10:35:40;;;;;;;14.82;12.30;;;;;;;;;;5080579;28;20475;-67
2021/06/25 10:38:06;;;;;;;14.70;13.23;;;;;;;;;;5075475;28;20578;-67
2021/06/25 10:40:32;;;;;;;16.00;14.55;;;;;;;;;;5068913;28;20040;-67
2021/06/25 10:43:01;;;;;;;14.77;12.45;;;;;;;;;;5084475;28;20036;-67
2021/06/25 10:45:45;;;;;;;14.55;13.25;;;;;;;;;;5075997;28;20044;-67
2021/06/25 10:48:11;;;;;;;14.68;13.25;;;;;;;;;;5081464;28;20506;-67
2021/06/25 10:50:38;;;;;;;15.05;13.48;;;;;;;;;;5079866;28;20101;-67
2021/06/25 10:53:10;;;;;;;15.18;13.68;;;;;;;;;;5078563;28;20025;-67
2021/06/25 10:55:46;;;;;;;14.15;12.77;;;;;;;;;;5070491;28;20058;-67
2021/06/25 10:58:23;;;;;;;16.23;14.60;;;;;;;;;;5071135;28;20041;-67
2021/06/25 11:00:55;;;;;;;16.40;14.70;;;;;;;;;;5073897;28;20036;-67
2021/06/25 11:03:32;;;;;;;15.40;13.80;;;;;;;;;;5075081;28;20043;-67
2021/06/25 11:05:58;;;;;;;13.77;12.57;;;;;;;;;;5070690;28;20038;-67
2021/06/25 11:08:25;;;;;;;14.32;12.82;;;;;;;;;;5079245;28;20068;-67
2021/06/25 11:10:53;;;;;;;13.90;12.68;;;;;;;;;;5069370;28;20048;-67
2021/06/25 11:13:24;;;;;;;14.50;13.10;;;;;;;;;;5081690;28;20047;-67
2021/06/25 11:15:52;;;;;;;14.07;12.77;;;;;;;;;;5071417;28;20039;-67
2021/06/25 11:18:18;;;;;;;13.70;12.30;;;;;;;;;;5085802;28;20037;-67
2021/06/25 11:21:08;;;;;;;13.80;12.55;;;;;;;;;;5073078;28;20028;-67
2021/06/25 11:23:37;;;;;;;14.82;13.35;;;;;;;;;;5074672;28;20118;-67
2021/06/25 11:26:05;;;;;;;14.38;13.02;;;;;;;;;;5069390;28;20731;-67
2021/06/25 11:28:32;;;;;;;13.82;12.45;;;;;;;;;;5074549;28;20393;-67
2021/06/25 11:30:59;;;;;;;12.23;11.02;;;;;;;;;;5075935;28;20375;-67
2021/06/25 11:33:31;;;;;;;12.77;11.68;;;;;;;;;;5072515;28;20741;-67
2021/06/25 11:36:16;;;;;;;12.55;11.25;;;;;;;;;;5093008;28;20104;-67
2021/06/25 11:38:55;;;;;;;12.48;11.32;;;;;;;;;;5073153;28;20048;-67
2021/06/25 11:41:26;;;;;;;14.02;12.60;;;;;;;;;;5086002;28;20617;-67
2021/06/25 11:43:53;;;;;;;14.63;13.15;;;;;;;;;;5079326;28;20085;-67
2021/06/25 11:46:19;;;;;;;13.73;12.30;;;;;;;;;;5081695;28;20032;-67
2021/06/25 11:48:47;;;;;;;15.75;14.15;;;;;;;;;;5064439;28;20048;-67
2021/06/25 11:51:13;;;;;;;14.88;13.43;;;;;;;;;;5076208;28;20064;-67
2021/06/25 11:53:43;;;;;;;17.65;15.93;;;;;;;;;;5077161;28;20399;-67
2021/06/25 11:56:17;;;;;;;18.40;16.38;;;;;;;;;;5089437;28;20287;-67
2021/06/25 11:59:02;;;;;;;19.88;17.23;;;;;;;;;;5080798;28;20039;-67
2021/06/25 12:01:29;;;;;;;19.70;17.80;;;;;;;;;;5083560;28;20047;-67
2021/06/25 12:03:56;;;;;;;19.30;17.40;;;;;;;;;;5075487;28;20529;-66
2021/06/25 12:06:23;;;;;;;19.98;18.05;;;;;;;;;;5076132;28;20066;-67
2021/06/25 12:09:00;;;;;;;17.38;15.68;;;;;;;;;;5078709;28;20128;-67
2021/06/25 12:11:28;;;;;;;19.42;17.48;;;;;;;;;;5087813;28;20419;-66
2021/06/25 12:13:57;;;;;;;20.10;18.08;;;;;;;;;;5075150;28;20040;-67
2021/06/25 12:16:23;;;;;;;19.77;17.77;;;;;;;;;;5076530;28;20047;-66
2021/06/25 12:18:49;;;;;;;18.50;16.83;;;;;;;;;;5081503;28;20044;-66
2021/06/25 12:21:17;;;;;;;20.88;18.70;;;;;;;;;;5084583;28;20174;-67
2021/06/25 12:23:43;;;;;;;20.45;17.52;;;;;;;;;;5070233;28;20392;-67
2021/06/25 12:26:13;;;;;;;20.25;18.27;;;;;;;;;;5085389;28;20040;-67
2021/06/25 12:28:41;;;;;;;20.65;18.67;;;;;;;;;;5080629;28;20059;-67
2021/06/25 12:31:12;;;;;;;20.83;18.58;;;;;;;;;;5080221;28;20037;-66
2021/06/25 12:33:38;;;;;;;24.98;19.77;;;;;;;;;;5071520;28;20031;-66
2021/06/25 12:36:04;;;;;;;22.17;19.98;;;;;;;;;;5074219;28;20093;-66
2021/06/25 12:38:31;;;;;;;19.95;17.85;;;;;;;;;;5081341;28;20499;-66
2021/06/25 12:41:15;;;;;;;22.23;19.85;;;;;;;;;;5072669;28;20545;-66
2021/06/25 12:43:43;;;;;;;23.58;21.25;;;;;;;;;;5076299;28;20043;-66
2021/06/25 12:46:19;;;;;;;22.58;20.38;;;;;;;;;;5068572;28;20130;-67
2021/06/25 12:48:57;;;;;;;25.17;22.33;;;;;;;;;;5077330;28;20118;-67
2021/06/25 12:51:25;;;;;;;23.48;21.05;;;;;;;;;;5078254;28;20031;-67
2021/06/25 12:53:59;;;;;;;22.58;20.33;;;;;;;;;;5079296;28;20028;-67
2021/06/25 12:56:25;;;;;;;24.73;22.17;;;;;;;;;;5071614;28;20032;-67
2021/06/25 12:58:56;;;;;;;21.38;19.27;;;;;;;;;;5085374;28;20150;-67
2021/06/25 13:01:22;;;;;;;23.23;20.67;;;;;;;;;;5070836;28;20033;-67
2021/06/25 13:03:49;;;;;;;21.75;19.65;;;;;;;;;;5076107;28;20097;-67
2021/06/25 13:06:28;;;;;;;25.20;22.60;;;;;;;;;;5070921;28;20048;-67
2021/06/25 13:08:55;;;;;;;24.58;22.17;;;;;;;;;;5086229;28;20411;-67
2021/06/25 13:11:23;;;;;;;23.10;20.80;;;;;;;;;;5073793;28;20049;-67
2021/06/25 13:13:50;;;;;;;23.52;21.25;;;;;;;;;;5077420;28;20044;-67
2021/06/25 13:16:20;;;;;;;25.40;22.88;;;;;;;;;;5077465;28;20512;-67
2021/06/25 13:18:48;;;;;;;25.50;22.85;;;;;;;;;;5082778;28;20056;-67
2021/06/25 13:21:26;;;;;;;25.90;23.08;;;;;;;;;;5078244;28;20400;-67
2021/06/25 13:24:01;;;;;;;26.15;23.50;;;;;;;;;;5076899;28;20044;-67
2021/06/25 13:26:48;;;;;;;24.35;21.92;;;;;;;;;;5074314;28;20129;-66
2021/06/25 13:29:15;;;;;;;24.83;22.33;;;;;;;;;;5082143;28;20076;-66
2021/06/25 13:31:51;;;;;;;25.52;22.80;;;;;;;;;;5076059;28;20509;-66
2021/06/25 13:34:17;;;;;;;25.38;22.92;;;;;;;;;;5073598;28;20419;-66
2021/06/25 13:37:00;;;;;;;25.40;22.88;;;;;;;;;;5069838;28;20047;-66
2021/06/25 13:39:27;;;;;;;24.23;21.83;;;;;;;;;;5075965;28;20223;-66
2021/06/25 13:41:54;;;;;;;23.23;20.50;;;;;;;;;;5070684;28;20416;-66
2021/06/25 13:44:35;;;;;;;24.52;22.05;;;;;;;;;;5077522;28;20032;-66
2021/06/25 13:47:08;;;;;;;23.25;20.58;;;;;;;;;;5066709;28;20441;-66
2021/06/25 13:49:36;;;;;;;23.92;21.63;;;;;;;;;;5085911;28;20047;-66
2021/06/25 13:52:03;;;;;;;22.83;20.55;;;;;;;;;;5072310;28;20048;-66
2021/06/25 13:54:29;;;;;;;24.35;21.77;;;;;;;;;;5074125;28;20036;-66
2021/06/25 13:56:56;;;;;;;23.67;21.17;;;;;;;;;;5075714;28;20047;-66
2021/06/25 13:59:22;;;;;;;25.27;21.85;;;;;;;;;;5086030;28;20040;-66
2021/06/25 14:01:50;;;;;;;23.35;20.35;;;;;;;;;;5079247;28;20032;-66
2021/06/25 14:04:20;;;;;;;22.83;20.42;;;;;;;;;;5085723;28;20475;-66
2021/06/25 14:06:57;;;;;;;23.83;20.65;;;;;;;;;;5082093;28;20036;-66
2021/06/25 14:09:28;;;;;;;24.30;21.63;;;;;;;;;;5075917;28;20047;-66
2021/06/25 14:11:55;;;;;;;22.58;20.20;;;;;;;;;;5085697;28;20028;-66
2021/06/25 14:14:22;;;;;;;27.17;24.10;;;;;;;;;;5083036;28;20514;-66
2021/06/25 14:17:01;;;;;;;25.95;22.40;;;;;;;;;;5081635;28;20462;-66
2021/06/25 14:19:28;;;;;;;24.95;22.25;;;;;;;;;;5069776;28;20412;-66
2021/06/25 14:21:54;;;;;;;25.17;22.58;;;;;;;;;;5082201;28;20060;-66
2021/06/25 14:24:22;;;;;;;26.05;23.35;;;;;;;;;;5065766;28;20474;-66
2021/06/25 14:26:48;;;;;;;23.35;20.85;;;;;;;;;;5083846;28;20051;-66
2021/06/25 14:29:14;;;;;;;24.65;22.05;;;;;;;;;;5075139;28;20578;-66
2021/06/25 14:31:40;;;;;;;29.05;23.55;;;;;;;;;;5077899;28;20036;-65
2021/06/25 14:34:06;;;;;;;26.13;23.17;;;;;;;;;;5067209;28;20043;-66
2021/06/25 14:36:32;;;;;;;26.77;21.77;;;;;;;;;;5080883;28;20492;-66
2021/06/25 14:38:59;;;;;;;25.10;22.40;;;;;;;;;;5078592;28;20507;-66
2021/06/25 14:41:25;;;;;;;23.65;21.20;;;;;;;;;;5078869;28;20535;-66
2021/06/25 14:43:52;;;;;;;23.98;21.75;;;;;;;;;;5068651;28;20569;-66